Time;durP1;ratioP1;P1;durP2;ratioP2;P2;SDS_P1;SDS_P2;PMS_P1;PMS_P2;Temp;Humidity;BMP_temperature;BMP_pressure;BME280_temperature;BME280_humidity;BME280_pressure;Samples;Min_cycle;Max_cycle;Signal;HPM_P1;HPM_P2
2023/10/09 00:02:45;;;;;;;30.45;18.05;;;20.10;96.30;;;;;;5031232;28;20496;-68
2023/10/09 00:05:53;;;;;;;26.90;19.27;;;20.10;96.30;;;;;;5031010;28;20401;-68
2023/10/09 00:08:57;;;;;;;30.08;19.20;;;20.00;96.10;;;;;;5031195;28;20040;-68
2023/10/09 00:12:01;;;;;;;26.48;18.25;;;20.10;95.90;;;;;;5030780;28;20385;-68
2023/10/09 00:15:11;;;;;;;30.08;18.60;;;20.10;96.10;;;;;;5030943;28;20401;-68
2023/10/09 00:18:15;;;;;;;24.95;18.10;;;20.20;96.10;;;;;;5030816;28;20048;-68
2023/10/09 00:21:20;;;;;;;29.77;18.17;;;20.20;95.90;;;;;;5030288;28;20048;-69
2023/10/09 00:24:24;;;;;;;30.85;19.15;;;21.30;95.60;;;;;;5030850;28;20048;-68
2023/10/09 00:27:31;;;;;;;30.52;17.85;;;20.60;95.10;;;;;;5030816;28;20044;-68
2023/10/09 00:30:40;;;;;;;25.92;18.60;;;20.30;95.40;;;;;;5029886;28;20065;-68
2023/10/09 00:33:44;;;;;;;29.75;18.13;;;19.90;95.50;;;;;;5029994;28;20616;-68
2023/10/09 00:36:52;;;;;;;31.05;19.35;;;19.90;95.70;;;;;;5030929;28;20053;-68
2023/10/09 00:39:56;;;;;;;27.70;18.55;;;19.40;95.70;;;;;;5030867;28;20044;-68
2023/10/09 00:43:06;;;;;;;27.85;19.02;;;19.90;95.90;;;;;;5030634;28;20052;-68
2023/10/09 00:46:23;;;;;;;28.20;17.98;;;19.90;96.00;;;;;;5030121;28;20037;-67
2023/10/09 00:49:28;;;;;;;26.38;18.08;;;19.90;96.10;;;;;;5031116;28;20049;-68
2023/10/09 00:52:43;;;;;;;29.42;19.10;;;20.10;96.00;;;;;;5031197;28;20041;-68
2023/10/09 00:55:55;;;;;;;28.75;19.67;;;19.90;96.00;;;;;;5030943;28;20060;-68
2023/10/09 00:59:07;;;;;;;28.10;18.88;;;19.90;95.90;;;;;;5030929;28;20049;-68
2023/10/09 01:02:11;;;;;;;26.92;17.75;;;19.90;95.80;;;;;;5030769;28;20606;-68
2023/10/09 01:05:20;;;;;;;30.98;18.52;;;20.00;95.90;;;;;;5029866;28;20044;-68
2023/10/09 01:11:34;;;;;;;26.30;19.33;;;20.00;96.10;;;;;;5030469;28;20044;-68
2023/10/09 01:14:41;;;;;;;31.98;18.85;;;22.50;96.90;;;;;;5030438;28;20044;-68
2023/10/09 01:17:45;;;;;;;28.23;18.40;;;19.80;96.20;;;;;;5029768;28;20053;-68
2023/10/09 01:20:52;;;;;;;29.85;18.85;;;20.20;96.30;;;;;;5030154;28;20036;-67
2023/10/09 01:27:15;;;;;;;23.17;14.90;;;20.60;95.10;;;;;;5030171;28;20040;-68
2023/10/09 01:30:20;;;;;;;21.23;13.80;;;17.90;93.90;;;;;;5030320;28;20048;-68
2023/10/09 01:33:25;;;;;;;19.02;13.02;;;19.90;94.40;;;;;;5032732;28;20053;-68
2023/10/09 01:36:32;;;;;;;26.77;13.50;;;19.30;94.40;;;;;;5033875;28;20420;-68
2023/10/09 01:39:40;;;;;;;24.75;14.73;;;19.80;94.70;;;;;;5032826;28;20041;-68
2023/10/09 01:42:47;;;;;;;25.00;13.77;;;20.20;94.60;;;;;;5033527;28;20048;-68
2023/10/09 01:45:51;;;;;;;25.20;14.63;;;17.60;93.90;;;;;;5033653;28;20389;-68
2023/10/09 01:48:55;;;;;;;25.15;14.63;;;19.70;94.20;;;;;;5033498;28;20044;-68
2023/10/09 01:52:03;;;;;;;22.98;15.32;;;17.20;93.70;;;;;;5033173;28;20489;-68
2023/10/09 01:55:13;;;;;;;23.25;14.52;;;19.60;94.40;;;;;;5032475;28;20057;-68
2023/10/09 01:58:32;;;;;;;25.55;14.20;;;19.30;94.60;;;;;;5033033;28;20105;-68
2023/10/09 02:01:41;;;;;;;25.95;15.60;;;19.70;94.80;;;;;;5032492;28;20056;-68
2023/10/09 02:04:45;;;;;;;22.30;13.90;;;;;;;;;;5033210;28;20053;-68
2023/10/09 02:07:51;;;;;;;25.30;14.00;;;19.60;94.70;;;;;;5033438;28;20048;-68
2023/10/09 02:10:56;;;;;;;23.27;14.13;;;19.50;94.50;;;;;;5033048;28;20037;-68
2023/10/09 02:14:00;;;;;;;21.95;14.68;;;;;;;;;;5032919;28;20056;-67
2023/10/09 02:17:09;;;;;;;23.17;14.60;;;19.40;94.70;;;;;;5033181;28;20052;-68
2023/10/09 02:20:17;;;;;;;25.65;15.43;;;;;;;;;;5033193;28;20492;-68
2023/10/09 02:23:25;;;;;;;23.23;14.63;;;;;;;;;;5032771;28;20052;-67
2023/10/09 02:29:42;;;;;;;26.33;14.63;;;20.30;95.20;;;;;;5032123;28;20393;-69
2023/10/09 02:32:52;;;;;;;30.38;14.88;;;19.10;95.00;;;;;;5032813;28;20389;-67
2023/10/09 02:35:59;;;;;;;27.70;15.10;;;19.10;95.10;;;;;;5032376;28;20404;-68
2023/10/09 02:39:05;;;;;;;21.13;13.82;;;19.20;95.20;;;;;;5031985;28;20036;-68
2023/10/09 02:45:18;;;;;;;29.48;14.68;;;;;;;;;;5032648;28;20500;-68
2023/10/09 02:48:26;;;;;;;23.20;15.18;;;;;;;;;;5032140;28;20041;-67
2023/10/09 02:51:32;;;;;;;24.77;14.45;;;19.00;95.10;;;;;;5032567;28;20052;-69
2023/10/09 02:54:41;;;;;;;24.13;14.32;;;;;;;;;;5032219;28;20045;-68
2023/10/09 02:57:45;;;;;;;28.10;14.45;;;;;;;;;;5031558;28;20405;-68
2023/10/09 03:00:51;;;;;;;23.60;14.75;;;16.30;94.40;;;;;;5032225;28;20524;-68
2023/10/09 03:03:59;;;;;;;24.95;14.50;;;;;;;;;;5032212;28;20048;-68
2023/10/09 03:07:04;;;;;;;25.80;14.23;;;;;;;;;;5031949;28;20068;-68
2023/10/09 03:10:11;;;;;;;25.70;14.85;;;;;;;;;;5031513;28;20052;-68
2023/10/09 03:13:19;;;;;;;27.77;13.80;;;;;;;;;;5031676;28;20060;-68
2023/10/09 03:16:23;;;;;;;21.38;14.70;;;;;;;;;;5030860;28;20056;-68
2023/10/09 03:19:37;;;;;;;25.95;14.27;;;19.00;95.60;;;;;;5030884;28;20040;-68
2023/10/09 03:22:42;;;;;;;23.42;14.10;;;;;;;;;;5031394;28;20053;-68
2023/10/09 03:25:46;;;;;;;25.85;14.15;;;;;;;;;;5031808;28;20048;-68
2023/10/09 03:28:52;;;;;;;25.65;13.95;;;18.80;95.80;;;;;;5030910;28;20048;-68
2023/10/09 03:31:56;;;;;;;26.08;13.80;;;18.80;95.80;;;;;;5031752;28;20040;-68
2023/10/09 03:35:03;;;;;;;37.50;14.85;;;;;;;;;;5031656;28;20060;-67
2023/10/09 03:38:13;;;;;;;31.20;14.15;;;18.90;95.70;;;;;;5031774;28;20040;-68
2023/10/09 03:41:18;;;;;;;32.92;14.77;;;;;;;;;;5031201;28;20052;-67
2023/10/09 03:44:22;;;;;;;30.23;14.63;;;17.80;95.40;;;;;;5030703;28;20037;-67
2023/10/09 03:47:27;;;;;;;33.03;14.25;;;;;;;;;;5031571;28;20048;-68
2023/10/09 03:50:35;;;;;;;21.42;13.13;;;18.60;95.40;;;;;;5031279;28;20037;-68
2023/10/09 03:53:40;;;;;;;22.35;14.10;;;;;;;;;;5031310;28;20109;-68
2023/10/09 03:56:44;;;;;;;33.72;19.17;;;;;;;;;;5031068;28;20049;-68
2023/10/09 03:59:49;;;;;;;21.95;12.93;;;;;;;;;;5031357;28;20044;-68
2023/10/09 04:02:58;;;;;;;24.73;14.10;;;18.90;95.30;;;;;;5030872;28;20044;-68
2023/10/09 04:06:03;;;;;;;21.08;13.65;;;;;;;;;;5031048;28;20036;-68
2023/10/09 04:12:25;;;;;;;22.27;13.65;;;;;;;;;;5030674;28;20048;-67
2023/10/09 04:15:30;;;;;;;25.15;13.90;;;;;;;;;;5030795;28;20045;-68
2023/10/09 04:18:38;;;;;;;25.52;13.93;;;;;;;;;;5031107;28;20044;-68
2023/10/09 04:21:42;;;;;;;35.60;14.55;;;;;;;;;;5030846;28;20036;-68
2023/10/09 04:24:48;;;;;;;33.40;15.10;;;;;;;;;;5030601;28;20048;-68
2023/10/09 04:31:21;;;;;;;21.40;13.65;;;17.30;95.70;;;;;;5030893;28;20053;-68
2023/10/09 04:34:34;;;;;;;35.92;15.30;;;18.40;95.90;;;;;;5030475;28;20044;-68
2023/10/09 04:37:39;;;;;;;29.65;14.20;;;;;;;;;;5030660;28;20545;-68
2023/10/09 04:43:50;;;;;;;25.15;14.15;;;;;;;;;;5030777;28;20056;-68
2023/10/09 04:53:44;;;;;;;27.55;13.98;;;;;;;;;;5030788;28;20068;-68
2023/10/09 04:56:51;;;;;;;30.95;14.00;;;;;;;;;;5030519;28;20057;-68
2023/10/09 04:59:58;;;;;;;26.98;14.52;;;;;;;;;;5029718;28;20044;-68
2023/10/09 05:03:24;;;;;;;29.67;14.20;;;18.40;95.90;;;;;;5030341;28;20068;-68
2023/10/09 05:07:22;;;;;;;27.58;14.75;;;;;;;;;;5032501;28;20037;-68
2023/10/09 05:10:16;;;;;;;37.88;15.95;;;;;;;;;;5035337;28;20053;-67
2023/10/09 05:13:42;;;;;;;33.53;15.18;;;;;;;;;;5034018;28;20072;-68
2023/10/09 05:16:55;;;;;;;34.30;14.70;;;;;;;;;;5034001;28;20072;-67
2023/10/09 05:20:55;;;;;;;39.78;14.98;;;;;;;;;;5034273;28;20048;-67
2023/10/09 05:23:23;;;;;;;40.72;16.38;;;;;;;;;;5033966;28;20036;-67
2023/10/09 05:29:59;;;;;;;42.28;16.70;;;;;;;;;;5034079;28;20056;-68
2023/10/09 05:42:45;;;;;;;43.97;16.58;;;19.30;94.50;;;;;;5033227;28;20064;-69
2023/10/09 05:46:15;;;;;;;31.10;14.30;;;;;;;;;;5033601;28;20512;-69
2023/10/09 05:49:24;;;;;;;45.28;14.18;;;;;;;;;;5033324;28;20040;-69
2023/10/09 06:03:23;;;;;;;37.63;13.52;;;;;;;;;;5032848;28;20069;-69
2023/10/09 06:12:33;;;;;;;27.10;13.35;;;22.20;90.60;;;;;;5032720;28;20048;-71
2023/10/09 06:19:07;;;;;;;44.97;15.90;;;22.70;89.80;;;;;;5033358;28;20053;-67
2023/10/09 06:25:17;;;;;;;43.47;15.23;;;22.70;90.10;;;;;;5033022;28;20041;-70
2023/10/09 06:28:32;;;;;;;32.50;14.32;;;22.70;90.10;;;;;;5033082;28;20484;-69
2023/10/09 06:35:15;;;;;;;43.78;16.23;;;23.10;90.00;;;;;;5032823;28;20040;-69
2023/10/09 06:38:23;;;;;;;63.85;16.42;;;23.20;90.00;;;;;;5032094;28;20076;-68
2023/10/09 06:41:37;;;;;;;59.25;16.70;;;23.20;90.00;;;;;;5032711;28;20112;-67
2023/10/09 06:44:53;;;;;;;59.20;16.75;;;23.30;90.00;;;;;;5031747;28;20052;-69
2023/10/09 06:48:07;;;;;;;45.00;16.65;;;23.40;89.80;;;;;;5032562;28;20041;-69
2023/10/09 06:54:37;;;;;;;37.30;16.45;;;23.70;87.30;;;;;;5032113;28;20053;-69
2023/10/09 06:57:43;;;;;;;52.63;18.45;;;23.90;87.40;;;;;;5031953;28;20052;-69
2023/10/09 07:04:10;;;;;;;43.55;14.77;;;24.00;88.00;;;;;;5032434;28;20065;-70
2023/10/09 07:07:16;;;;;;;42.67;15.45;;;24.10;87.40;;;;;;5032129;28;20044;-69
2023/10/09 07:10:28;;;;;;;42.65;14.98;;;24.10;87.70;;;;;;5032180;28;20052;-70
2023/10/09 07:13:37;;;;;;;49.05;16.10;;;24.10;87.60;;;;;;5031792;28;20393;-70
2023/10/09 07:16:57;;;;;;;41.17;15.15;;;24.30;87.20;;;;;;5031735;28;20507;-70
2023/10/09 07:20:13;;;;;;;32.25;14.27;;;24.50;85.90;;;;;;5031881;28;20409;-72
2023/10/09 07:23:20;;;;;;;28.50;14.55;;;24.60;85.10;;;;;;5031504;28;20044;-71
2023/10/09 07:26:36;;;;;;;43.10;15.70;;;23.70;84.20;;;;;;5031548;28;20048;-68
2023/10/09 07:29:49;;;;;;;34.13;15.05;;;25.00;84.00;;;;;;5031315;28;20053;-68
2023/10/09 07:36:13;;;;;;;35.60;17.15;;;25.10;84.40;;;;;;5031219;28;20064;-72
2023/10/09 07:39:17;;;;;;;33.05;16.42;;;25.30;84.00;;;;;;5031342;28;20049;-70
2023/10/09 07:42:43;;;;;;;43.45;16.85;;;25.50;83.40;;;;;;5030804;28;20420;-68
2023/10/09 07:48:57;;;;;;;32.22;16.35;;;25.90;81.10;;;;;;5030837;28;20048;-70
2023/10/09 07:52:01;;;;;;;41.17;17.77;;;26.00;81.30;;;;;;5030709;28;20052;-70
2023/10/09 07:55:22;;;;;;;29.98;15.07;;;26.20;81.10;;;;;;5030900;28;20068;-70
2023/10/09 07:58:26;;;;;;;37.17;16.30;;;26.30;81.30;;;;;;5030884;28;20068;-71
2023/10/09 08:01:36;;;;;;;42.05;15.85;;;26.40;80.30;;;;;;5029733;28;20048;-72
2023/10/09 08:04:49;;;;;;;39.42;17.08;;;26.40;80.70;;;;;;5030791;28;20049;-71
2023/10/09 08:08:18;;;;;;;36.67;15.38;;;26.60;80.60;;;;;;5030792;28;20045;-72
2023/10/09 08:11:59;;;;;;;33.38;15.25;;;26.40;80.80;;;;;;5031026;28;20045;-71
2023/10/09 08:15:20;;;;;;;46.55;15.10;;;26.30;81.40;;;;;;5030371;28;20053;-71
2023/10/09 08:18:29;;;;;;;36.03;14.27;;;26.50;80.30;;;;;;5030589;28;20048;-70
2023/10/09 08:21:41;;;;;;;29.95;12.98;;;26.50;80.60;;;;;;5030656;28;20068;-71
2023/10/09 08:24:52;;;;;;;25.85;12.93;;;26.70;80.40;;;;;;5030768;28;20523;-71
2023/10/09 08:28:28;;;;;;;46.47;18.15;;;26.90;79.40;;;;;;5030224;28;20048;-69
2023/10/09 08:34:53;;;;;;;38.80;17.48;;;26.90;79.10;;;;;;5030512;28;20049;-72
2023/10/09 08:38:07;;;;;;;39.88;16.25;;;27.00;79.80;;;;;;5030579;28;20516;-71
2023/10/09 08:41:19;;;;;;;32.50;14.55;;;27.10;78.60;;;;;;5031879;28;20048;-73
2023/10/09 08:44:29;;;;;;;42.60;17.20;;;27.20;78.00;;;;;;5034555;28;20044;-70
2023/10/09 08:47:35;;;;;;;34.67;14.77;;;27.10;78.90;;;;;;5033448;28;20057;-73
2023/10/09 08:50:39;;;;;;;55.65;26.77;;;27.10;78.80;;;;;;5034234;28;20080;-71
2023/10/09 08:53:43;;;;;;;33.08;17.42;;;27.20;78.50;;;;;;5034315;28;20045;-70
2023/10/09 08:56:49;;;;;;;21.38;11.55;;;27.20;78.40;;;;;;5034052;28;20056;-72
2023/10/09 08:59:53;;;;;;;26.88;11.10;;;27.30;78.00;;;;;;5033825;28;20123;-72
2023/10/09 09:03:00;;;;;;;21.60;11.05;;;27.40;78.10;;;;;;5034197;28;20049;-69
2023/10/09 09:06:05;;;;;;;18.35;9.82;;;27.50;77.40;;;;;;5034519;28;20072;-71
2023/10/09 09:09:15;;;;;;;30.58;11.52;;;27.50;77.30;;;;;;5034015;28;20041;-71
2023/10/09 09:12:21;;;;;;;31.95;11.10;;;27.60;77.20;;;;;;5032663;28;20052;-71
2023/10/09 09:15:27;;;;;;;34.28;11.90;;;27.60;76.80;;;;;;5032669;28;20040;-71
2023/10/09 09:18:37;;;;;;;22.75;10.02;;;27.60;76.30;;;;;;5032957;28;20409;-71
2023/10/09 09:21:47;;;;;;;25.40;10.03;;;27.70;76.90;;;;;;5032447;28;20056;-72
2023/10/09 09:25:10;;;;;;;26.65;10.35;;;25.80;73.40;;;;;;5031007;28;20512;-71
2023/10/09 09:28:21;;;;;;;25.50;10.65;;;28.10;74.30;;;;;;5032212;28;20048;-72
2023/10/09 09:31:25;;;;;;;18.70;9.50;;;31.60;76.60;;;;;;5032083;28;20412;-71
2023/10/09 09:34:29;;;;;;;23.58;10.05;;;28.20;74.80;;;;;;5032261;28;20058;-72
2023/10/09 09:40:53;;;;;;;21.55;9.88;;;28.40;73.70;;;;;;5032498;28;20105;-72
2023/10/09 09:44:01;;;;;;;18.70;9.48;;;28.60;72.40;;;;;;5032346;28;20052;-72
2023/10/09 09:47:06;;;;;;;25.42;10.77;;;29.10;72.50;;;;;;5032164;28;20041;-71
2023/10/09 09:50:24;;;;;;;30.25;13.32;;;28.90;73.00;;;;;;5032128;28;20068;-72
2023/10/09 09:53:34;;;;;;;85.00;15.25;;;27.60;71.50;;;;;;5031681;28;20044;-71
2023/10/09 09:56:44;;;;;;;37.70;11.50;;;29.10;73.20;;;;;;5031973;28;20056;-72
2023/10/09 09:59:52;;;;;;;33.15;10.05;;;29.20;73.20;;;;;;5030975;28;20071;-72
2023/10/09 10:03:36;;;;;;;28.52;10.18;;;29.40;69.80;;;;;;5031790;28;20060;-71
2023/10/09 10:06:44;;;;;;;19.10;9.43;;;29.40;70.50;;;;;;5032017;28;20053;-70
2023/10/09 10:09:54;;;;;;;19.15;8.93;;;29.50;70.70;;;;;;5032019;28;20047;-73
2023/10/09 10:13:01;;;;;;;21.15;9.43;;;29.50;69.70;;;;;;4990821;28;1183047;-75
2023/10/09 10:16:39;;;;;;;22.83;10.45;;;29.60;70.20;;;;;;5032783;28;20049;-73
2023/10/09 10:23:25;;;;;;;20.55;8.60;;;29.50;69.50;;;;;;5032860;28;20052;-72
2023/10/09 10:26:30;;;;;;;23.40;8.80;;;29.60;70.20;;;;;;5032727;28;20064;-71
2023/10/09 10:29:34;;;;;;;30.30;11.05;;;29.60;70.40;;;;;;5032539;28;20505;-72
2023/10/09 10:32:56;;;;;;;24.13;10.50;;;29.60;71.10;;;;;;5032362;28;20061;-72
2023/10/09 10:36:06;;;;;;;27.10;9.88;;;29.60;71.60;;;;;;5032268;28;20416;-72
2023/10/09 10:39:11;;;;;;;17.83;8.77;;;29.60;70.40;;;;;;5032466;28;20048;-71
2023/10/09 10:42:33;;;;;;;35.58;12.52;;;29.60;70.90;;;;;;5032055;28;20040;-72
2023/10/09 10:45:43;;;;;;;28.15;11.23;;;29.60;72.30;;;;;;5032394;28;20374;-72
2023/10/09 10:48:49;;;;;;;28.00;8.88;;;29.60;72.00;;;;;;5032469;28;20389;-73
2023/10/09 10:52:14;;;;;;;19.75;10.65;;;29.50;71.20;;;;;;5031936;28;20060;-73
2023/10/09 10:55:48;;;;;;;23.23;10.60;;;29.50;73.10;;;;;;5032299;28;20048;-71
2023/10/09 10:58:54;;;;;;;20.35;10.23;;;29.40;73.00;;;;;;5031727;28;20056;-71
2023/10/09 11:02:13;;;;;;;27.15;10.85;;;29.40;72.80;;;;;;5031978;28;20044;-73
2023/10/09 11:05:26;;;;;;;30.50;10.00;;;29.30;72.10;;;;;;5031440;28;20057;-73
2023/10/09 11:08:32;;;;;;;15.30;8.95;;;29.30;72.00;;;;;;5032060;28;20036;-71
2023/10/09 11:11:46;;;;;;;25.05;11.73;;;29.20;72.30;;;;;;5031771;28;20303;-73
2023/10/09 11:15:07;;;;;;;22.13;10.07;;;29.20;72.00;;;;;;5031894;28;20060;-72
2023/10/09 11:18:20;;;;;;;21.23;10.23;;;29.10;72.20;;;;;;5032002;28;20508;-72
2023/10/09 11:21:30;;;;;;;31.30;10.32;;;29.10;72.70;;;;;;5031593;28;20045;-72
2023/10/09 11:24:35;;;;;;;21.88;9.27;;;29.10;73.50;;;;;;5031332;28;20036;-72
2023/10/09 11:27:50;;;;;;;15.98;8.77;;;29.10;73.40;;;;;;5031397;28;20053;-72
2023/10/09 11:30:55;;;;;;;17.63;8.95;;;29.10;73.60;;;;;;5031293;28;20048;-73
2023/10/09 11:34:01;;;;;;;18.98;9.00;;;29.10;73.80;;;;;;5031470;28;20044;-72
2023/10/09 11:41:24;;;;;;;17.05;9.02;;;29.00;73.90;;;;;;5031441;28;20045;-72
2023/10/09 11:43:58;;;;;;;19.95;9.73;;;29.00;74.60;;;;;;5031398;28;20500;-73
2023/10/09 11:47:25;;;;;;;19.60;9.10;;;29.00;74.90;;;;;;5031320;28;20040;-72
2023/10/09 11:53:58;;;;;;;24.75;10.50;;;29.00;74.60;;;;;;5030896;28;20040;-72
2023/10/09 11:57:03;;;;;;;20.75;9.75;;;29.00;75.60;;;;;;5030983;28;20065;-73
2023/10/09 12:00:24;;;;;;;19.13;9.80;;;28.90;75.40;;;;;;5031147;28;20683;-72
2023/10/09 12:03:29;;;;;;;19.00;9.18;;;28.90;76.00;;;;;;5031013;28;20044;-73
2023/10/09 12:06:35;;;;;;;21.73;10.20;;;28.90;76.30;;;;;;5031026;28;20517;-74
2023/10/09 12:09:39;;;;;;;22.38;9.82;;;28.90;77.30;;;;;;5030792;28;20049;-73
2023/10/09 12:12:46;;;;;;;20.80;9.93;;;28.90;76.90;;;;;;5030599;28;20052;-72
2023/10/09 12:15:54;;;;;;;21.73;9.35;;;28.90;77.40;;;;;;5030586;28;20512;-72
2023/10/09 12:18:59;;;;;;;25.67;9.90;;;28.90;77.40;;;;;;5030194;28;20058;-72
2023/10/09 12:22:04;;;;;;;18.67;9.20;;;28.80;76.90;;;;;;5030889;28;20036;-70
2023/10/09 12:25:09;;;;;;;16.65;9.60;;;28.90;77.60;;;;;;5030908;28;20048;-70
2023/10/09 12:28:13;;;;;;;18.23;10.05;;;28.80;78.10;;;;;;5030769;28;20052;-71
2023/10/09 12:31:21;;;;;;;16.88;10.43;;;28.80;78.80;;;;;;5030706;28;20100;-70
2023/10/09 12:34:30;;;;;;;21.80;11.52;;;28.70;79.50;;;;;;5030653;28;20041;-71
2023/10/09 12:37:34;;;;;;;27.88;11.27;;;28.80;80.10;;;;;;5030940;28;20056;-70
2023/10/09 12:40:50;;;;;;;21.98;10.73;;;28.70;80.40;;;;;;5030883;28;20049;-71
2023/10/09 12:43:55;;;;;;;27.48;11.30;;;28.70;80.90;;;;;;5030941;28;20048;-71
2023/10/09 12:47:03;;;;;;;19.17;10.30;;;28.70;81.20;;;;;;5029723;28;20060;-69
2023/10/09 12:50:13;;;;;;;17.70;11.20;;;28.70;81.70;;;;;;5030848;28;20060;-68
2023/10/09 12:53:17;;;;;;;23.00;12.55;;;28.70;81.90;;;;;;5030620;28;20045;-70
2023/10/09 12:56:22;;;;;;;26.83;15.90;;;28.60;82.60;;;;;;5030962;28;20041;-70
2023/10/09 12:59:26;;;;;;;27.05;15.00;;;28.60;83.10;;;;;;5030795;28;20053;-70
2023/10/09 13:02:30;;;;;;;26.92;17.15;;;28.60;82.90;;;;;;5031047;28;20053;-69
2023/10/09 13:05:34;;;;;;;26.27;16.25;;;28.60;85.10;;;;;;5030478;28;20044;-69
2023/10/09 13:08:40;;;;;;;26.67;15.50;;;28.60;85.60;;;;;;5030240;28;20527;-69
2023/10/09 13:11:48;;;;;;;25.27;15.07;;;28.50;86.10;;;;;;5030282;28;20041;-69
2023/10/09 13:14:51;;;;;;;22.00;13.20;;;28.50;86.40;;;;;;5030506;28;20060;-68
2023/10/09 13:17:55;;;;;;;17.02;12.75;;;28.50;86.90;;;;;;5030122;28;20048;-69
2023/10/09 13:21:03;;;;;;;25.20;14.30;;;28.40;86.80;;;;;;5030080;28;20512;-71
2023/10/09 13:24:15;;;;;;;22.35;12.35;;;28.50;87.10;;;;;;5030058;28;20045;-71
2023/10/09 13:27:21;;;;;;;18.10;11.77;;;28.30;87.10;;;;;;5031771;28;20040;-70
2023/10/09 13:30:25;;;;;;;21.05;12.30;;;28.30;87.80;;;;;;5032834;28;20045;-71
2023/10/09 13:33:36;;;;;;;20.27;11.80;;;28.30;88.70;;;;;;5033710;28;20052;-70
2023/10/09 13:36:49;;;;;;;16.38;12.05;;;28.30;89.20;;;;;;5033314;28;20056;-68
2023/10/09 13:39:53;;;;;;;19.00;11.68;;;29.80;89.90;;;;;;5033705;28;20071;-71
2023/10/09 13:42:58;;;;;;;21.77;11.70;;;28.20;89.30;;;;;;5033779;28;20496;-71
2023/10/09 13:46:03;;;;;;;23.85;12.48;;;28.20;89.60;;;;;;5033859;28;20064;-70
2023/10/09 13:49:14;;;;;;;18.38;11.57;;;27.60;88.60;;;;;;5033759;28;20045;-69
2023/10/09 13:52:18;;;;;;;24.65;12.75;;;28.20;89.60;;;;;;5033277;28;20048;-70
2023/10/09 13:55:22;;;;;;;12.43;10.43;;;28.10;89.20;;;;;;5033764;28;20071;-69
2023/10/09 13:58:27;;;;;;;19.20;12.68;;;28.10;89.70;;;;;;5033404;28;20056;-69
2023/10/09 14:01:32;;;;;;;16.02;11.93;;;28.30;90.20;;;;;;5033001;28;20041;-69
2023/10/09 14:04:36;;;;;;;14.65;11.20;;;28.10;90.20;;;;;;5033241;28;20752;-69
2023/10/09 14:07:41;;;;;;;20.10;13.40;;;28.00;90.30;;;;;;5033013;28;20369;-69
2023/10/09 14:10:48;;;;;;;20.77;12.32;;;27.90;90.30;;;;;;5032828;28;20417;-69
2023/10/09 14:13:52;;;;;;;28.92;14.48;;;27.90;90.50;;;;;;5032772;28;20048;-69
2023/10/09 14:16:57;;;;;;;20.60;12.32;;;27.90;90.30;;;;;;5032685;28;20060;-69
2023/10/09 14:20:25;;;;;;;18.83;12.05;;;27.90;90.20;;;;;;5032593;28;20048;-71
2023/10/09 14:23:32;;;;;;;20.88;12.70;;;27.80;90.10;;;;;;5032491;28;20044;-74
2023/10/09 14:26:36;;;;;;;16.45;11.90;;;27.80;90.40;;;;;;5032679;28;20068;-71
2023/10/09 14:29:42;;;;;;;25.65;13.35;;;27.80;90.30;;;;;;5032556;28;20045;-67
2023/10/09 14:32:51;;;;;;;16.70;12.00;;;27.80;90.60;;;;;;5032686;28;20045;-69
2023/10/09 14:35:55;;;;;;;16.27;10.65;;;27.80;90.80;;;;;;5032401;28;20040;-67
2023/10/09 14:39:03;;;;;;;15.65;10.50;;;28.70;91.20;;;;;;5029365;28;20068;-68
2023/10/09 14:42:11;;;;;;;19.23;11.77;;;27.70;91.20;;;;;;5032199;28;20045;-71
2023/10/09 14:45:18;;;;;;;22.35;11.88;;;;;;;;;;5032216;28;20037;-73
2023/10/09 14:48:28;;;;;;;16.25;10.88;;;27.70;91.50;;;;;;5032501;28;20033;-70
2023/10/09 14:51:32;;;;;;;;;;;27.60;91.60;;;;;;5032390;28;20044;-70
2023/10/09 14:54:38;;;;;;;19.90;7.60;;;27.10;88.20;;;;;;5032281;28;19916;-72
2023/10/09 14:57:42;;;;;;;19.23;7.97;;;27.30;84.60;;;;;;5031750;28;20061;-71
2023/10/09 15:00:46;;;;;;;18.15;7.90;;;27.40;85.40;;;;;;5031834;28;20040;-71
2023/10/09 15:03:53;;;;;;;14.52;7.35;;;27.30;87.30;;;;;;5031825;28;20408;-70
2023/10/09 15:06:56;;;;;;;15.13;7.63;;;27.40;87.90;;;;;;5032105;28;20496;-70
2023/10/09 15:10:03;;;;;;;21.90;7.75;;;27.40;87.20;;;;;;5032064;28;20056;-71
2023/10/09 15:13:07;;;;;;;22.02;8.82;;;27.30;84.80;;;;;;5031694;28;20065;-71
2023/10/09 15:16:11;;;;;;;15.05;8.30;;;27.30;86.00;;;;;;5031987;28;20052;-69
2023/10/09 15:19:16;;;;;;;19.85;9.38;;;27.30;87.60;;;;;;5031259;28;20049;-71
2023/10/09 15:22:21;;;;;;;16.10;7.70;;;27.20;88.00;;;;;;5031509;28;20060;-70
2023/10/09 15:25:25;;;;;;;15.15;8.45;;;27.20;87.50;;;;;;5031119;28;20080;-69
2023/10/09 15:28:32;;;;;;;19.40;10.07;;;27.10;89.20;;;;;;5029373;28;20496;-70
2023/10/09 15:31:36;;;;;;;17.08;8.32;;;27.20;90.30;;;;;;5031228;28;20409;-71
2023/10/09 15:34:44;;;;;;;20.02;9.98;;;27.10;90.50;;;;;;5031198;28;20045;-69
2023/10/09 15:37:48;;;;;;;18.08;8.90;;;27.00;90.90;;;;;;5031292;28;20060;-68
2023/10/09 15:40:52;;;;;;;21.23;10.15;;;27.00;91.10;;;;;;5030907;28;20040;-68
2023/10/09 15:44:01;;;;;;;18.20;9.90;;;27.00;91.50;;;;;;5031039;28;20045;-69
2023/10/09 15:47:08;;;;;;;19.27;10.82;;;27.00;92.10;;;;;;5030856;28;20076;-68
2023/10/09 15:50:14;;;;;;;18.95;11.23;;;26.90;92.30;;;;;;5030868;28;20064;-72
2023/10/09 15:53:18;;;;;;;23.63;10.57;;;26.90;92.70;;;;;;5031358;28;20044;-70
2023/10/09 15:56:22;;;;;;;31.20;13.23;;;26.90;92.90;;;;;;5030947;28;20044;-70
2023/10/09 15:59:26;;;;;;;23.77;12.45;;;26.80;93.80;;;;;;5030986;28;20220;-70
2023/10/09 16:02:30;;;;;;;24.55;13.82;;;26.70;93.80;;;;;;5029968;28;20057;-70
2023/10/09 16:05:35;;;;;;;22.67;13.82;;;26.60;94.00;;;;;;5030510;28;20148;-71
2023/10/09 16:08:41;;;;;;;29.70;13.48;;;26.60;94.20;;;;;;5029723;28;20647;-71
2023/10/09 16:11:47;;;;;;;24.63;13.13;;;26.50;94.20;;;;;;5030806;28;20048;-69
2023/10/09 16:14:50;;;;;;;26.25;14.25;;;26.40;94.20;;;;;;5029646;28;20049;-69
2023/10/09 16:18:06;;;;;;;21.33;13.32;;;26.40;94.10;;;;;;5030855;28;20131;-75
2023/10/09 16:21:12;;;;;;;19.92;13.52;;;26.40;94.60;;;;;;5030811;28;20053;-70
2023/10/09 16:24:17;;;;;;;21.98;14.27;;;26.30;94.80;;;;;;5030354;28;20405;-68
2023/10/09 16:27:23;;;;;;;24.00;15.07;;;26.20;94.80;;;;;;5030396;28;20061;-70
2023/10/09 16:30:27;;;;;;;23.90;14.10;;;26.20;94.70;;;;;;5030487;28;20433;-71
2023/10/09 16:33:31;;;;;;;23.05;14.57;;;26.10;94.60;;;;;;5029587;28;20044;-71
2023/10/09 16:36:36;;;;;;;22.33;14.65;;;26.10;94.70;;;;;;5029280;28;20132;-71
2023/10/09 16:39:41;;;;;;;23.92;13.85;;;26.00;94.80;;;;;;5030572;28;20056;-70
2023/10/09 16:42:44;;;;;;;33.97;17.58;;;26.00;94.80;;;;;;5029057;28;20036;-70
2023/10/09 16:45:50;;;;;;;26.75;16.13;;;26.00;94.80;;;;;;5029477;28;20575;-75
2023/10/09 16:48:59;;;;;;;24.60;15.15;;;25.90;94.70;;;;;;5028332;28;20770;-75
2023/10/09 16:52:10;;;;;;;26.38;14.73;;;25.90;94.70;;;;;;5028586;28;20044;-71
2023/10/09 16:55:15;;;;;;;28.95;16.73;;;25.80;94.90;;;;;;5028489;28;20056;-74
2023/10/09 16:58:19;;;;;;;35.40;17.10;;;25.80;95.10;;;;;;5028242;28;20103;-75
2023/10/09 17:01:24;;;;;;;27.15;16.75;;;25.70;95.10;;;;;;5028834;28;20044;-73
2023/10/09 17:04:29;;;;;;;26.48;16.35;;;25.70;95.20;;;;;;5032589;28;20052;-74
2023/10/09 17:07:34;;;;;;;24.58;16.42;;;25.70;95.30;;;;;;5031689;28;20040;-74
2023/10/09 17:10:45;;;;;;;31.95;17.20;;;25.70;95.40;;;;;;5032057;28;20049;-74
2023/10/09 17:13:49;;;;;;;22.73;18.48;;;25.50;95.30;;;;;;5033481;28;20061;-74
2023/10/09 17:16:54;;;;;;;31.92;18.20;;;25.50;95.60;;;;;;5034048;28;20048;-74
2023/10/09 17:20:11;;;;;;;55.38;19.85;;;25.50;95.80;;;;;;5033835;28;20064;-74
2023/10/09 17:23:16;;;;;;;49.38;17.88;;;25.50;96.00;;;;;;5033917;28;20109;-74
2023/10/09 17:26:22;;;;;;;32.50;18.75;;;25.40;96.30;;;;;;5034082;28;20531;-74
2023/10/09 17:29:27;;;;;;;33.90;17.85;;;25.40;96.40;;;;;;5032530;28;20052;-74
2023/10/09 17:32:34;;;;;;;47.35;20.13;;;25.20;96.60;;;;;;5033678;28;20532;-74
2023/10/09 17:35:39;;;;;;;45.30;20.20;;;25.10;96.70;;;;;;5033640;28;20044;-74
2023/10/09 17:38:49;;;;;;;38.58;18.92;;;25.10;97.00;;;;;;5032740;28;20060;-74
2023/10/09 17:41:55;;;;;;;53.37;21.57;;;25.10;97.10;;;;;;5033427;28;20047;-73
2023/10/09 17:44:59;;;;;;;35.35;21.52;;;25.00;97.00;;;;;;5032484;28;20578;-75
2023/10/09 17:48:08;;;;;;;34.85;19.40;;;24.90;97.50;;;;;;5032392;28;20045;-75
2023/10/09 17:51:14;;;;;;;35.45;19.30;;;24.80;97.60;;;;;;5031967;28;20048;-75
2023/10/09 17:54:23;;;;;;;45.65;22.08;;;24.80;97.80;;;;;;5032226;28;20045;-74
2023/10/09 17:57:27;;;;;;;44.05;23.85;;;24.80;98.10;;;;;;5033050;28;20056;-72